Santa Fe, NM

9:33 PM MDT on July 30, 2015 (GMT -0600)
Casa Solana | | Change Station
CLOSE
Current Station
Personal Weather Station
Location: Santa Fe, NM
Elevation: 6930 ft
Nearby Weather Stations

Elev 6930 ft 35.69 °N, 105.96 °W | Updated 3 minutes ago

Overcast
Overcast
65.8 °F
Feels Like 65.8 °F
N
0.0
Wind Variable Wind from WSW
Gusts 0.0 mph

Today
High -- | Low -- °F
--% Chance of Precip.
Yesterday
High -- | Low -- °F
Precip. -- in
6:10 AM 8:09 PM
Full, 100% visible
Pressure 30.15 in
Visibility 10.0 miles
Clouds Mostly Cloudy 11000 ft
Dew Point 57 °F
Humidity 73%
Rainfall 0.09 in
Snow Depth Not available.
UV 0 out of 12
Pollen .50 out of 12
Air Quality Not available.
Flu Activity Not available.
METAR KSAF 310253Z 16008KT 10SM BKN110 18/15 A3040 RMK AO2 SLP208 T01830150 51010

More Conditions Fewer Conditions

Pressure 30.15 in
Visibility 10.0 miles
Clouds Mostly Cloudy 11000 ft
Dew Point 57 °F
Humidity 73%
Rainfall 0.09 in
Snow Depth Not available.
UV 0 out of 12
Pollen .50 out of 12
Air Quality Not available.
Flu Activity Not available.
METAR KSAF 310253Z 16008KT 10SM BKN110 18/15 A3040 RMK AO2 SLP208 T01830150 51010

More Conditions Fewer Conditions

10-Day Weather Forecast

×

Almanac

Astronomy

Jul. 30, 2015 Rise Set
Actual Time
Civil Twilight
Nautical Twilight
Astronomical Twilight
Moon
Length of Visible Light
Length of Day
Tomorrow will be .
, % of the Moon is Illuminated

Today's Extremes

State Highs State Lows

Community

WunderPhotos

Upload Photos

1,842,598 photos uploaded!

WunderBlogs® & News

Nearby

Air Quality

  Air Quality AQ Index Pollutant
Not available.

Snow Depth

Station Depth Elevation

Earthquake Activity

City Distance Mag. Time & Date
Minimum magnitude displayed is 2.5.

Coastal Water Temperatures

Place Temperature

Stations

Nearby Weather Stations

Station Location Temp. Windchill Dew Point Humidity Wind Precip. Elev Updated Type